• Join FlightAware (Why Join?)
  • Login
  • US Flag 
03:51PM EDT


 

Airport Tracker/Info


-or-


 

Live Flight TrackerFlight Track Log ✈ SKW6345 ✈ 14-Aug-2013 ✈ KSFO - KBZN

Flight Track Log - Related Links

Times and Time Zones

All times are in EDT time to prevent confusion due to time zone crossing. See the SKW6345 flight status page for this flight to view local times or setup timezone preferences in your user account.

Time Position Orientation Groundspeed Altitude Reporting Facility
EDT Latitude Longitude Course Direction KTS MPH feet Rate Location/Type
11:19AM 37.6500 -122.3333 38° Northeast 177 204 1,800  Level Northern Cal TRACON
11:20AM 37.7000 -122.2667 47° Northeast 246 283 3,500 1,920 Climbing Northern Cal TRACON
11:21AM 37.7500 -122.2000 47° Northeast 275 316 5,700 2,340 Climbing Northern Cal TRACON
11:22AM 37.6680 -122.3154 38° Northeast  Level FlightAware Approximate
11:22AM 37.8167 -122.1500 31° Northeast 282 325 8,200  Level Northern Cal TRACON
11:23AM 37.7667 -122.2166 38° Northeast  Level FlightAware Approximate
11:23AM 37.8667 -122.0833 46° Northeast 294 338 10,200  Level Northern Cal TRACON
11:24AM 37.8655 -122.1178 38° Northeast  Level FlightAware Approximate
11:24AM 37.8986 -122.0628 27° Northeast 293 337 10,800  Level Oakland Center
11:25AM 37.9643 -122.0190 38° Northeast  Level FlightAware Approximate
11:25AM 37.9836 -121.9842 36° Northeast 318 366 12,900  Level Oakland Center
11:26AM 38.0569 -121.9147 37° Northeast 329 379 14,600 1,500 Climbing Oakland Center
11:27AM 38.1333 -121.8431 36° Northeast 341 392 16,000 1,260 Climbing Oakland Center
11:28AM 38.2131 -121.7686 36° Northeast 354 407 17,200 1,200 Climbing Oakland Center
11:29AM 38.2953 -121.6917 36° Northeast 366 421 18,500 1,200 Climbing Oakland Center
11:30AM 38.3775 -121.6122 37° Northeast 369 425 19,700 1,200 Climbing Oakland Center
11:31AM 38.4683 -121.5167 39° Northeast 379 436 21,000 1,080 Climbing Oakland Center
11:32AM 38.5475 -121.4536 32° Northeast 380 437 21,900 960 Climbing Oakland Center
11:33AM 38.6561 -121.3658 32° Northeast 388 447 23,000 1,020 Climbing Oakland Center
11:34AM 38.7461 -121.2903 33° Northeast 393 452 24,100 1,020 Climbing Oakland Center
11:35AM 38.8392 -121.2142 32° Northeast 394 453 25,100 840 Climbing Oakland Center
11:36AM 38.9314 -121.1356 34° Northeast 396 456 25,900 780 Climbing Oakland Center
11:37AM 39.0253 -121.0564 33° Northeast 401 461 26,700 720 Climbing Oakland Center
11:38AM 39.1194 -120.9786 33° Northeast 400 460 27,400 660 Climbing Oakland Center
11:39AM 39.2142 -120.8983 33° Northeast 406 467 28,100 540 Climbing Oakland Center
11:40AM 39.3089 -120.8172 34° Northeast 408 470 28,600 480 Climbing Oakland Center
11:41AM 39.4053 -120.7367 33° Northeast 412 474 29,200 480 Climbing Oakland Center
11:42AM 39.5225 -120.6383 33° Northeast 419 482 29,700 360 Climbing Oakland Center
11:43AM 39.6189 -120.5533 34° Northeast 418 481 30,000 480 Climbing Oakland Center
11:44AM 39.7169 -120.4706 33° Northeast 419 482 30,800 600 Climbing Oakland Center
11:45AM 39.8150 -120.3861 33° Northeast 423 487 31,300 480 Climbing Oakland Center
11:46AM 39.9111 -120.3047 33° Northeast 414 476 31,800 300 Climbing Oakland Center
11:47AM 40.0083 -120.2194 34° Northeast 418 481 32,000 60 Climbing Oakland Center
11:48AM 40.1031 -120.1372 34° Northeast 422 486 32,000  Level Oakland Center
11:49AM 40.2217 -120.0344 33° Northeast 423 487 32,000  Level Oakland Center
11:50AM 40.3208 -119.9475 34° Northeast 426 490 32,000  Level Oakland Center
11:51AM 40.4200 -119.8606 34° Northeast 428 493 32,000  Level Oakland Center
11:52AM 40.5189 -119.7733 34° Northeast 428 493 32,000 120 Level Oakland Center
11:53AM 40.6231 -119.6814 34° Northeast 427 491 32,300 300 Climbing Oakland Center
11:54AM 40.7183 -119.5975 34° Northeast 419 482 32,700 240 Climbing Oakland Center
11:55AM 40.8197 -119.5064 34° Northeast 413 475 32,900 120 Climbing Oakland Center
11:56AM 40.9106 -119.4256 34° Northeast 412 474 33,000  Climbing Oakland Center
11:57AM 41.0011 -119.3431 35° Northeast 414 476 33,000  Level Salt Lake Center
11:58AM 41.1100 -119.2469 34° Northeast 418 481 33,000  Level Salt Lake Center
12:00PM 41.2022 -119.1619 35° Northeast 419 482 33,000  Level Salt Lake Center
12:01PM 41.2947 -119.0783 34° Northeast 420 483 33,000  Level Salt Lake Center
12:02PM 41.4044 -118.9786 34° Northeast 423 487 33,000  Level Salt Lake Center
12:03PM 41.4986 -118.8928 34° Northeast 426 490 33,000  Level Salt Lake Center
12:04PM 41.6075 -118.7936 34° Northeast 425 489 33,000  Level Salt Lake Center
12:05PM 41.7006 -118.7061 35° Northeast 427 491 33,000  Level Salt Lake Center
12:06PM 41.8106 -118.6050 34° Northeast 427 491 33,000  Level Salt Lake Center
12:07PM 41.9039 -118.5189 34° Northeast 425 489 33,000  Level Salt Lake Center
12:08PM 42.0128 -118.4167 35° Northeast 425 489 33,000  Level Salt Lake Center
12:09PM 42.1069 -118.3289 35° Northeast 430 495 33,000  Level Salt Lake Center
12:10PM 42.2156 -118.2258 35° Northeast 428 493 33,000  Level Salt Lake Center
12:11PM 42.3153 -118.1303 35° Northeast 431 496 33,000  Level Salt Lake Center
12:12PM 42.4083 -118.0411 35° Northeast 427 491 33,000  Level Salt Lake Center
12:13PM 42.5158 -117.9358 36° Northeast 425 489 33,000  Level Salt Lake Center
12:14PM 42.6053 -117.8381 39° Northeast 429 494 33,000  Level Salt Lake Center
12:15PM 42.6844 -117.6908 54° Northeast 434 499 33,000  Level Salt Lake Center
12:16PM 42.7525 -117.5653 54° Northeast 431 496 33,000  Level Salt Lake Center
12:17PM 42.8325 -117.4189 53° Northeast 431 496 33,000  Level Salt Lake Center
12:18PM 42.9011 -117.2922 53° Northeast 434 499 33,000  Level Salt Lake Center
12:19PM 42.9683 -117.1653 54° Northeast 433 498 33,000  Level Salt Lake Center
12:20PM 43.0481 -117.0175 54° Northeast 433 498 33,000  Level Salt Lake Center
12:21PM 43.1158 -116.8906 54° Northeast 434 499 33,000  Level Salt Lake Center
12:22PM 43.1939 -116.7422 54° Northeast 431 496 33,000  Level Salt Lake Center
12:23PM 43.2608 -116.6150 54° Northeast 431 496 33,000  Level Salt Lake Center
12:24PM 43.3386 -116.4656 54° Northeast 429 494 33,000  Level Salt Lake Center
12:25PM 43.4056 -116.3378 54° Northeast 432 497 33,000  Level Salt Lake Center
12:26PM 43.4825 -116.1886 55° Northeast 429 494 33,000  Level Salt Lake Center
12:27PM 43.5486 -116.0603 55° Northeast 429 494 33,000  Level Salt Lake Center
12:28PM 43.6261 -115.9100 54° Northeast 431 496 33,000  Level Salt Lake Center
12:29PM 43.6922 -115.7814 55° Northeast 431 496 33,000  Level Salt Lake Center
12:31PM 43.7692 -115.6297 55° Northeast 432 497 33,000  Level Salt Lake Center
12:32PM 43.8339 -115.4994 55° Northeast 431 496 33,000  Level Salt Lake Center
12:33PM 43.9100 -115.3489 55° Northeast 429 494 33,000  Level Salt Lake Center
12:34PM 43.9758 -115.2186 55° Northeast 431 496 33,000  Level Salt Lake Center
12:35PM 44.0517 -115.0658 55° Northeast 432 497 33,000  Level Salt Lake Center
12:36PM 44.1153 -114.9347 56° Northeast 429 494 33,000  Level Salt Lake Center
12:37PM 44.1925 -114.7814 55° Northeast 433 498 33,000  Level Salt Lake Center
12:38PM 44.2572 -114.6492 56° Northeast 433 498 33,000  Level Salt Lake Center
12:39PM 44.3328 -114.4953 55° Northeast 432 497 33,000  Level Salt Lake Center
12:40PM 44.3972 -114.3611 56° Northeast 433 498 33,000  Level Salt Lake Center
12:41PM 44.4731 -114.2064 55° Northeast 433 498 33,000  Level Salt Lake Center
12:42PM 44.5364 -114.0719 57° Northeast 433 498 33,000  Level Salt Lake Center
12:43PM 44.6053 -113.9300 56° Northeast 435 501 33,000  Level Salt Lake Center
12:44PM 44.6786 -113.7725 57° Northeast 434 499 33,000  Level Salt Lake Center
12:45PM 44.7419 -113.6364 57° Northeast 436 502 33,000  Level Salt Lake Center
12:46PM 44.8181 -113.4775 56° Northeast 439 505 33,000  Level Salt Lake Center
12:47PM 44.8817 -113.3386 57° Northeast 440 506 33,000  Level Salt Lake Center
12:48PM 44.9469 -113.2000 56° Northeast 442 509 33,000  Level Salt Lake Center
12:49PM 45.0231 -113.0386 56° Northeast 442 509 33,000  Level Salt Lake Center
12:50PM 45.0869 -112.8983 57° Northeast 444 511 33,000  Level Salt Lake Center
12:51PM 45.1617 -112.7369 57° Northeast 441 507 33,000  Level Salt Lake Center
12:52PM 45.2264 -112.5958 57° Northeast 445 512 33,000 -960 Level Salt Lake Center
12:53PM 45.2953 -112.4322 59° Northeast 433 498 31,100 -2,460 Descending Salt Lake Center
12:54PM 45.3453 -112.3014 61° Northeast 402 463 27,900 -3,300 Descending Salt Lake Center
12:55PM 45.4003 -112.1606 61° Northeast 389 448 24,300 -2,820 Descending Salt Lake Center
12:56PM 45.4517 -112.0350 60° Northeast 372 428 22,100 -2,040 Descending Salt Lake Center
12:57PM 45.5311 -111.9514 36° Northeast 357 411 20,100 -1,920 Descending Salt Lake Center
12:58PM 45.6083 -111.8717 36° Northeast 343 395 18,200 -1,860 Descending Salt Lake Center
12:59PM 45.6836 -111.7972 35° Northeast 332 382 16,300 -2,100 Descending Salt Lake Center
01:01PM 45.7722 -111.7106 34° Northeast 322 371 13,900 -2,040 Descending Salt Lake Center
01:02PM 45.8433 -111.6361 36° Northeast 317 365 12,100 -1,620 Descending Salt Lake Center
01:03PM 45.9206 -111.6239 North 297 342 10,600 -1,080 Descending Salt Lake Center
01:04PM 45.9683 -111.5414 50° Northeast 293 337 9,900 -900 Descending Salt Lake Center
01:05PM 45.9497 -111.4389 105° East 280 322 8,800 -960 Descending Salt Lake Center
01:06PM 45.9183 -111.3478 116° Southeast 269 310 8,000 -1,020 Descending Salt Lake Center
01:07PM 45.8711 -111.2839 137° Southeast 246 283 6,700 -1,200 Descending Salt Lake Center
01:08PM 45.8311 -111.2278 136° Southeast 195 224 5,600 -960 Descending Salt Lake Center
01:09PM 45.8011 -111.1856 136° Southeast 165 190 4,800 -780 Descending Salt Lake Center